createdAt,value
2018-12-27T00:02:25.791Z,1.55
2018-12-27T00:05:01.925Z,1.72
2018-12-27T00:07:33.621Z,1.60
2018-12-27T00:10:04.657Z,1.69
2018-12-27T00:12:35.550Z,1.59
2018-12-27T00:15:06.073Z,1.57
2018-12-27T00:17:36.388Z,1.58
2018-12-27T00:20:06.768Z,1.46
2018-12-27T00:22:37.123Z,1.36
2018-12-27T00:25:07.446Z,1.35
2018-12-27T00:27:37.799Z,1.22
2018-12-27T00:30:14.342Z,1.14
2018-12-27T00:32:44.749Z,1.06
2018-12-27T00:35:15.174Z,0.96
2018-12-27T00:37:45.623Z,1.08
2018-12-27T00:40:16.007Z,1.00
2018-12-27T00:42:46.302Z,1.08
2018-12-27T00:45:16.733Z,1.03
2018-12-27T00:47:49.216Z,0.99
2018-12-27T00:50:19.796Z,1.05
2018-12-27T00:52:50.274Z,0.85
2018-12-27T00:55:20.661Z,0.76
2018-12-27T00:57:50.996Z,0.67
2018-12-27T01:03:13.200Z,0.57
2018-12-27T01:05:43.548Z,0.58
2018-12-27T01:08:13.858Z,0.50
2018-12-27T01:10:50.082Z,0.44
2018-12-27T01:13:20.498Z,0.51
2018-12-27T01:15:52.632Z,0.55
2018-12-27T01:18:23.126Z,0.57
2018-12-27T01:20:53.577Z,0.40
2018-12-27T01:23:23.932Z,0.36
2018-12-27T01:25:54.366Z,0.48
2018-12-27T01:28:49.543Z,0.45
2018-12-27T01:31:20.229Z,0.39
2018-12-27T01:33:50.566Z,0.47
2018-12-27T01:36:20.983Z,0.41
2018-12-27T01:38:51.303Z,0.22
2018-12-27T01:41:36.256Z,0.00
2018-12-27T01:44:03.411Z,-0.03
2018-12-27T01:46:34.159Z,-0.16
2018-12-27T01:49:04.781Z,-0.33
2018-12-27T01:51:35.209Z,-0.48
2018-12-27T01:54:05.614Z,-0.41
2018-12-27T01:56:36.203Z,-0.48
2018-12-27T01:59:06.515Z,-0.51
2018-12-27T02:01:37.004Z,-0.60
2018-12-27T02:04:07.449Z,-0.64
2018-12-27T02:06:44.211Z,-0.45
2018-12-27T02:09:14.550Z,-0.58
2018-12-27T02:11:51.120Z,-0.65
2018-12-27T02:14:21.513Z,-0.61
2018-12-27T02:16:51.952Z,-0.74
2018-12-27T02:19:22.376Z,-0.92
2018-12-27T02:21:52.720Z,-0.79
2018-12-27T02:24:23.043Z,-0.81
2018-12-27T02:26:53.472Z,-0.74
2018-12-27T02:32:21.703Z,-1.03
2018-12-27T02:34:52.195Z,-0.94
2018-12-27T02:37:22.555Z,-1.11
2018-12-27T02:39:53.326Z,-1.22
2018-12-27T02:42:29.545Z,-1.04
2018-12-27T02:44:59.950Z,-1.16
2018-12-27T02:47:30.290Z,-1.13
2018-12-27T02:50:00.590Z,-1.10
2018-12-27T02:52:30.875Z,-1.25
2018-12-27T02:55:01.627Z,-1.45
2018-12-27T03:00:21.792Z,-1.67
2018-12-27T03:02:58.497Z,-1.65
2018-12-27T03:05:28.943Z,-1.44
2018-12-27T03:07:59.297Z,-1.62
2018-12-27T03:10:30.306Z,-1.66
2018-12-27T03:13:00.867Z,-1.52
2018-12-27T03:15:33.291Z,-1.52
2018-12-27T03:18:03.767Z,-1.48
2018-12-27T03:20:40.525Z,-1.52
2018-12-27T03:23:17.329Z,-1.57
2018-12-27T03:25:47.818Z,-1.51
2018-12-27T03:28:18.622Z,-1.50
2018-12-27T03:30:49.029Z,-1.71
2018-12-27T03:33:19.338Z,-1.90
2018-12-27T03:39:14.013Z,-2.09
2018-12-27T03:41:44.439Z,-2.22
2018-12-27T03:44:14.931Z,-2.32
2018-12-27T03:47:04.534Z,-2.39
2018-12-27T03:49:35.190Z,-2.45
2018-12-27T03:52:05.555Z,-2.48
2018-12-27T03:54:35.849Z,-2.25
2018-12-27T03:57:06.325Z,-2.33
2018-12-27T03:59:38.668Z,-2.41
2018-12-27T04:02:09.027Z,-2.49
2018-12-27T04:04:39.396Z,-2.48
2018-12-27T04:07:16.531Z,-2.35
2018-12-27T04:09:46.962Z,-2.15
2018-12-27T04:12:18.101Z,-2.35
2018-12-27T04:15:08.314Z,-2.45
2018-12-27T04:17:38.835Z,-2.46
2018-12-27T04:22:52.659Z,-2.55
2018-12-27T04:28:24.926Z,-2.55
2018-12-27T04:30:55.344Z,-2.69
2018-12-27T04:33:45.671Z,-2.77
2018-12-27T04:36:36.461Z,-2.78
2018-12-27T04:39:08.290Z,-2.71
2018-12-27T04:44:48.494Z,-2.49
2018-12-27T04:47:18.865Z,-2.51
2018-12-27T04:49:49.436Z,-2.47
2018-12-27T04:52:19.789Z,-2.58
2018-12-27T04:54:50.173Z,-2.44
2018-12-27T04:57:20.479Z,-2.56
2018-12-27T04:59:56.903Z,-2.66
2018-12-27T05:02:28.859Z,-2.84
2018-12-27T05:04:59.205Z,-2.75
2018-12-27T05:07:29.539Z,-2.88
2018-12-27T05:09:59.875Z,-2.95
2018-12-27T05:12:30.207Z,-3.02
2018-12-27T05:15:00.626Z,-3.00
2018-12-27T05:17:30.996Z,-2.94
2018-12-27T05:20:01.302Z,-2.82
2018-12-27T05:22:31.617Z,-2.84
2018-12-27T05:25:01.962Z,-2.95
2018-12-27T05:27:45.620Z,-3.04
2018-12-27T05:30:17.000Z,-3.05
2018-12-27T05:32:47.389Z,-3.16
2018-12-27T05:35:17.703Z,-3.20
2018-12-27T05:37:47.999Z,-3.03
2018-12-27T05:43:18.895Z,-2.75
2018-12-27T05:45:50.847Z,-2.76
2018-12-27T05:48:21.205Z,-2.94
2018-12-27T05:50:51.631Z,-2.82
2018-12-27T05:53:24.464Z,-2.79
2018-12-27T05:55:54.806Z,-2.78
2018-12-27T05:58:25.233Z,-2.82
2018-12-27T06:00:55.526Z,-2.76
2018-12-27T06:03:25.859Z,-2.70
2018-12-27T06:05:56.178Z,-2.69
2018-12-27T06:08:26.615Z,-2.70
2018-12-27T06:13:39.543Z,-2.79
2018-12-27T06:16:09.910Z,-2.71
2018-12-27T06:18:40.488Z,-2.71
2018-12-27T06:21:10.763Z,-2.73
2018-12-27T06:23:41.143Z,-2.78
2018-12-27T06:26:18.308Z,-2.82
2018-12-27T06:31:31.156Z,-2.79
2018-12-27T06:34:03.844Z,-2.73
2018-12-27T06:36:34.182Z,-2.76
2018-12-27T06:42:07.511Z,-3.05
2018-12-27T06:44:37.831Z,-3.06
2018-12-27T06:47:08.637Z,-2.92
2018-12-27T06:49:38.960Z,-2.91
2018-12-27T06:52:09.265Z,-3.00
2018-12-27T06:54:39.592Z,-3.10
2018-12-27T06:57:09.988Z,-3.01
2018-12-27T06:59:40.307Z,-2.89
2018-12-27T07:02:28.831Z,-2.95
2018-12-27T07:04:57.941Z,-2.76
2018-12-27T07:07:28.867Z,-2.55
2018-12-27T07:12:48.860Z,-2.56
2018-12-27T07:15:19.254Z,-2.71
2018-12-27T07:17:49.662Z,-2.73
2018-12-27T07:20:19.993Z,-2.68
2018-12-27T07:22:56.612Z,-2.56
2018-12-27T07:25:27.086Z,-2.48
2018-12-27T07:27:57.483Z,-2.48
2018-12-27T07:30:27.798Z,-2.52
2018-12-27T07:32:58.130Z,-2.32
2018-12-27T07:35:30.225Z,-2.24
2018-12-27T07:38:00.582Z,-2.38
2018-12-27T07:40:30.900Z,-2.47
2018-12-27T07:43:01.238Z,-2.56
2018-12-27T07:45:31.548Z,-2.63
2018-12-27T07:48:01.956Z,-2.68
2018-12-27T07:50:32.274Z,-2.70
2018-12-27T07:53:07.233Z,-2.65
2018-12-27T07:55:37.636Z,-2.60
2018-12-27T07:58:07.969Z,-2.45
2018-12-27T08:01:17.849Z,-2.12
2018-12-27T08:03:48.455Z,-2.15
2018-12-27T08:06:18.810Z,-2.31
2018-12-27T08:08:55.478Z,-2.36
2018-12-27T08:11:25.951Z,-2.17
2018-12-27T08:14:16.830Z,-2.20
2018-12-27T08:16:47.223Z,-2.36
2018-12-27T08:19:23.851Z,-2.46
2018-12-27T08:22:13.298Z,-2.38
2018-12-27T08:24:44.062Z,-1.97
2018-12-27T08:27:14.381Z,-1.80
2018-12-27T08:29:44.750Z,-1.90
2018-12-27T08:32:21.256Z,-1.84
2018-12-27T08:38:00.913Z,-1.52
2018-12-27T08:40:31.275Z,-1.41
2018-12-27T08:43:01.930Z,-1.29
2018-12-27T08:45:32.286Z,-1.28
2018-12-27T08:48:54.759Z,-1.19
2018-12-27T08:52:19.468Z,-1.04
2018-12-27T08:55:12.021Z,-0.99
2018-12-27T14:16:22.582Z,-0.60
2018-12-27T14:18:53.411Z,-0.68
2018-12-27T14:21:25.963Z,-0.73
2018-12-27T14:23:59.343Z,-0.83
2018-12-27T14:29:16.543Z,-0.94
2018-12-27T14:31:47.456Z,-1.00
2018-12-27T14:34:18.281Z,-1.01
2018-12-27T14:36:49.156Z,-1.07
2018-12-27T14:39:34.310Z,-1.14
2018-12-27T14:41:57.466Z,-1.18
2018-12-27T14:44:46.916Z,-1.18
2018-12-27T14:47:17.334Z,-1.19
2018-12-27T14:49:47.687Z,-0.95
2018-12-27T14:52:18.048Z,-0.91
2018-12-27T14:54:48.449Z,-0.94
2018-12-27T14:57:18.918Z,-0.85
2018-12-27T14:59:49.242Z,-1.00
2018-12-27T15:02:19.707Z,-1.04
2018-12-27T15:04:50.022Z,-1.04
2018-12-27T15:10:10.545Z,-0.88
2018-12-27T15:12:40.940Z,-0.96
2018-12-27T15:15:11.265Z,-0.92
2018-12-27T15:17:41.706Z,-0.86
2018-12-27T15:20:12.288Z,-0.70
2018-12-27T15:22:42.652Z,-0.69
2018-12-27T15:25:12.999Z,-0.63
2018-12-27T15:28:08.954Z,-0.71
2018-12-27T15:30:39.315Z,-0.72
2018-12-27T15:33:10.097Z,-0.54
2018-12-27T15:35:40.784Z,-0.50
2018-12-27T15:38:13.375Z,-0.46
2018-12-27T15:40:43.726Z,-0.55
2018-12-27T15:43:20.628Z,-0.68
2018-12-27T15:45:51.269Z,-0.79
2018-12-27T15:48:27.866Z,-0.87
2018-12-27T15:50:58.309Z,-0.69
2018-12-27T15:53:28.897Z,-0.74
2018-12-27T15:58:30.707Z,-0.78
2018-12-27T16:01:01.078Z,-0.75
2018-12-27T16:03:31.411Z,-0.83
2018-12-27T16:06:03.896Z,-0.84
2018-12-27T16:08:34.188Z,-0.85
2018-12-27T16:11:04.648Z,-0.94
2018-12-27T16:13:42.585Z,-0.96
2018-12-27T16:16:14.992Z,-0.80
2018-12-27T16:18:45.560Z,-0.87
2018-12-27T16:21:15.940Z,-0.88
2018-12-27T16:23:46.386Z,-0.82
2018-12-27T16:26:22.888Z,-0.71
2018-12-27T16:28:53.379Z,-0.72
2018-12-27T16:31:23.716Z,-0.76
2018-12-27T16:33:54.483Z,-0.65
2018-12-27T16:36:30.997Z,-0.67
2018-12-27T16:39:01.327Z,-0.53
2018-12-27T16:41:31.766Z,-0.57
2018-12-27T16:44:02.225Z,-0.43
2018-12-27T16:46:33.065Z,-0.47
2018-12-27T16:49:03.393Z,-0.36
2018-12-27T16:51:53.219Z,-0.36
2018-12-27T16:54:23.852Z,-0.50
2018-12-27T16:56:54.207Z,-0.41
2018-12-27T16:59:24.660Z,-0.49
2018-12-27T17:04:44.713Z,-0.50
2018-12-27T17:07:16.201Z,-0.55
2018-12-27T17:09:57.327Z,-0.52
2018-12-27T17:12:29.327Z,-0.48
2018-12-27T17:15:20.841Z,-0.53
2018-12-27T17:17:53.263Z,-0.62
2018-12-27T17:20:23.714Z,-0.59
2018-12-27T17:22:54.088Z,-0.64
2018-12-27T17:25:24.505Z,-0.52
2018-12-27T17:28:14.680Z,-0.48
2018-12-27T17:34:10.761Z,-0.65
2018-12-27T17:36:39.787Z,-0.77
2018-12-27T17:39:49.579Z,-0.78
2018-12-27T17:42:19.927Z,-0.79
2018-12-27T17:44:50.530Z,-0.88
2018-12-27T17:47:20.843Z,-0.97
2018-12-27T17:49:51.148Z,-0.99
2018-12-27T17:52:21.598Z,-0.87
2018-12-27T17:54:52.360Z,-0.70
2018-12-27T17:57:22.688Z,-0.82
2018-12-27T17:59:53.029Z,-0.81
2018-12-27T18:02:23.742Z,-0.84
2018-12-27T18:07:56.876Z,-0.78
2018-12-27T18:10:27.214Z,-0.74
2018-12-27T18:13:03.754Z,-0.78
2018-12-27T18:15:34.084Z,-0.85
2018-12-27T18:18:04.449Z,-0.88
2018-12-27T18:20:34.860Z,-0.89
2018-12-27T18:23:11.392Z,-0.79
2018-12-27T18:25:41.818Z,-0.81
2018-12-27T18:28:12.691Z,-0.85
2018-12-27T18:30:43.000Z,-0.83
2018-12-27T18:33:13.358Z,-0.83
2018-12-27T18:35:43.708Z,-0.53
2018-12-27T18:38:14.109Z,-0.51
2018-12-27T18:40:44.474Z,-0.46
2018-12-27T18:43:14.881Z,-0.49
2018-12-27T18:45:51.481Z,-0.55
2018-12-27T18:48:21.835Z,-0.59
2018-12-27T18:50:52.208Z,-0.46
2018-12-27T18:53:22.675Z,-0.34
2018-12-27T18:55:53.094Z,-0.44
2018-12-27T18:58:23.523Z,-0.29
2018-12-27T19:00:53.882Z,-0.30
2018-12-27T19:09:16.341Z,-0.40
2018-12-27T19:12:26.199Z,-0.47
2018-12-27T19:15:01.365Z,-0.52
2018-12-27T19:18:08.591Z,-0.51
2018-12-27T19:20:40.598Z,-0.47
2018-12-27T19:23:15.407Z,-0.56
2018-12-27T19:25:45.744Z,-0.61
2018-12-27T19:28:16.087Z,-0.52
2018-12-27T19:30:46.355Z,-0.66
2018-12-27T19:33:35.847Z,-0.74
2018-12-27T19:39:09.175Z,-0.83
2018-12-27T19:41:39.544Z,-0.91
2018-12-27T19:44:10.200Z,-0.87
2018-12-27T19:46:40.557Z,-1.06
2018-12-27T19:49:22.875Z,-1.06
2018-12-27T19:51:56.604Z,-0.90
2018-12-27T19:54:31.879Z,-0.92
2018-12-27T19:57:09.060Z,-0.96
2018-12-27T19:59:39.447Z,-0.87
2018-12-27T20:02:10.021Z,-0.79
2018-12-27T20:04:40.429Z,-1.00
2018-12-27T20:07:11.060Z,-1.16
2018-12-27T20:10:00.586Z,-1.25
2018-12-27T20:12:34.397Z,-1.15
2018-12-27T20:15:04.785Z,-1.16
2018-12-27T20:17:37.387Z,-1.27
2018-12-27T20:20:32.724Z,-1.35
2018-12-27T20:23:09.381Z,-1.31
2018-12-27T20:25:39.754Z,-1.32
2018-12-27T20:28:10.131Z,-1.43
2018-12-27T20:30:40.429Z,-1.45
2018-12-27T20:33:10.727Z,-1.45
2018-12-27T20:35:43.459Z,-1.37
2018-12-27T20:38:14.138Z,-1.40
2018-12-27T20:40:44.487Z,-1.42
2018-12-27T20:43:14.831Z,-1.46
2018-12-27T20:45:51.683Z,-1.36
2018-12-27T20:48:22.170Z,-1.35
2018-12-27T20:50:52.509Z,-1.44
2018-12-27T20:53:22.907Z,-1.49
2018-12-27T20:55:53.240Z,-1.45
2018-12-27T20:58:23.570Z,-1.28
2018-12-27T21:00:53.876Z,-1.27
2018-12-27T21:03:24.192Z,-1.30
2018-12-27T21:05:54.679Z,-1.16
2018-12-27T21:08:45.243Z,-1.17
2018-12-27T21:11:15.620Z,-1.16
2018-12-27T21:13:45.931Z,-1.07
2018-12-27T21:16:16.245Z,-1.14
2018-12-27T21:18:46.589Z,-1.14
2018-12-27T21:21:16.935Z,-1.14
2018-12-27T21:23:49.409Z,-1.05
2018-12-27T21:26:26.198Z,-0.97
2018-12-27T21:28:56.523Z,-0.84
2018-12-27T21:31:26.866Z,-0.83
2018-12-27T21:33:57.222Z,-0.88
2018-12-27T21:36:27.673Z,-0.83
2018-12-27T21:39:18.625Z,-0.85
2018-12-27T21:41:49.095Z,-0.79
2018-12-27T21:44:44.459Z,-0.78
2018-12-27T21:47:15.080Z,-0.65
2018-12-27T21:49:45.391Z,-0.66
2018-12-27T21:55:25.518Z,-0.71
2018-12-27T21:57:55.921Z,-0.77
2018-12-27T22:00:26.247Z,-0.66
2018-12-27T22:02:56.860Z,-0.71
2018-12-27T22:05:27.234Z,-0.74
2018-12-27T22:07:57.683Z,-0.79
2018-12-27T22:10:28.039Z,-0.68
2018-12-27T22:12:58.409Z,-0.65
2018-12-27T22:15:28.869Z,-0.66
2018-12-27T22:17:59.197Z,-0.73
2018-12-27T22:20:29.490Z,-0.71
2018-12-27T22:23:05.867Z,-0.66
2018-12-27T22:25:36.295Z,-0.52
2018-12-27T22:28:06.636Z,-0.61
2018-12-27T22:30:37.058Z,-1.10
2018-12-27T22:33:07.546Z,-0.45
2018-12-27T22:35:38.004Z,-0.48
2018-12-27T22:38:08.434Z,-0.58
2018-12-27T22:40:38.819Z,-0.65
2018-12-27T22:46:25.586Z,-0.73
2018-12-27T22:48:56.009Z,-0.79
2018-12-27T22:51:26.369Z,-0.80
2018-12-27T22:53:56.731Z,-0.87
2018-12-27T22:56:27.130Z,-0.85
2018-12-27T22:58:57.515Z,-0.89
2018-12-27T23:01:29.828Z,-0.84
2018-12-27T23:04:01.875Z,-0.98
2018-12-27T23:06:32.272Z,-0.97
2018-12-27T23:09:02.631Z,-0.88
2018-12-27T23:11:32.999Z,-0.92
2018-12-27T23:14:03.307Z,-1.07
2018-12-27T23:19:33.000Z,-1.38
2018-12-27T23:22:03.309Z,-1.46
2018-12-27T23:24:41.781Z,-1.58
2018-12-27T23:27:12.214Z,-1.53
2018-12-27T23:29:42.494Z,-1.67
2018-12-27T23:32:12.871Z,-1.80
2018-12-27T23:34:43.465Z,-1.82
2018-12-27T23:37:19.648Z,-1.79
2018-12-27T23:39:50.053Z,-1.84
2018-12-27T23:42:20.375Z,-1.71
2018-12-27T23:44:50.782Z,-1.80
2018-12-27T23:47:21.226Z,-1.73
2018-12-27T23:49:51.545Z,-1.48
2018-12-27T23:55:03.837Z,-1.54
2018-12-27T23:57:34.526Z,-1.56
